Time;durP1;ratioP1;P1;durP2;ratioP2;P2;SDS_P1;SDS_P2;PMS_P1;PMS_P2;Temp;Humidity;BMP_temperature;BMP_pressure;BME280_temperature;BME280_humidity;BME280_pressure;Samples;Min_cycle;Max_cycle;Signal;HPM_P1;HPM_P2
2021/07/18 00:00:22;;;;;;;2.80;1.80;;;;;;;17.82;81.64;102433.81;5019119;28;20234;-69
2021/07/18 00:02:47;;;;;;;6.30;2.70;;;;;;;17.91;82.04;102456.19;5020463;28;20184;-70
2021/07/18 00:05:13;;;;;;;2.70;1.93;;;;;;;17.71;81.59;102418.13;5022048;28;20469;-69
2021/07/18 00:07:38;;;;;;;5.50;2.40;;;;;;;17.87;82.62;102465.75;5014336;28;20211;-70
2021/07/18 00:10:05;;;;;;;5.13;2.60;;;;;;;17.46;82.48;102392.66;5025941;28;20181;-69
2021/07/18 00:12:30;;;;;;;6.20;2.37;;;;;;;17.81;83.26;102461.16;5026593;28;20697;-70
2021/07/18 00:14:55;;;;;;;5.17;2.30;;;;;;;17.59;82.95;102428.78;5020779;28;20477;-70
2021/07/18 00:17:21;;;;;;;4.20;1.80;;;;;;;17.37;83.67;102400.97;5015156;28;20216;-70
2021/07/18 00:19:46;;;;;;;5.57;3.20;;;;;;;17.55;83.50;102421.25;5021218;28;20191;-70
2021/07/18 00:22:12;;;;;;;4.13;2.20;;;;;;;17.68;84.02;102459.25;5023922;28;20204;-70
2021/07/18 00:24:37;;;;;;;7.17;2.60;;;;;;;17.43;83.41;102390.34;5024235;28;20188;-70
2021/07/18 00:27:03;;;;;;;6.77;2.93;;;;;;;17.72;83.15;102411.66;5015983;28;20223;-69
2021/07/18 00:29:28;;;;;;;4.80;3.00;;;;;;;17.59;83.72;102414.38;5022699;28;20688;-69
2021/07/18 00:31:54;;;;;;;8.13;2.77;;;;;;;17.44;84.20;102416.41;5025478;28;20239;-70
2021/07/18 00:34:20;;;;;;;6.90;2.97;;;;;;;17.30;84.37;102385.72;5022117;28;20682;-70
2021/07/18 00:36:46;;;;;;;3.53;2.57;;;;;;;17.48;84.13;102423.13;5019703;28;20304;-70
2021/07/18 00:39:12;;;;;;;8.00;2.70;;;;;;;17.43;84.22;102418.31;5018977;28;20815;-70
2021/07/18 00:41:37;;;;;;;7.20;2.53;;;;;;;17.61;83.59;102423.13;5021268;28;20193;-69
2021/07/18 00:44:03;;;;;;;3.50;2.43;;;;;;;17.45;84.17;102428.97;5024238;28;20195;-70
2021/07/18 00:46:28;;;;;;;4.30;3.00;;;;;;;17.67;83.81;102444.00;5017390;28;20200;-70
2021/07/18 00:48:54;;;;;;;4.00;2.70;;;;;;;17.45;82.89;102377.41;5023377;28;20198;-70
2021/07/18 00:51:19;;;;;;;6.13;3.27;;;;;;;17.48;83.83;102396.00;5019259;28;20342;-70
2021/07/18 00:53:45;;;;;;;7.47;3.37;;;;;;;17.28;84.44;102383.22;5026009;28;20187;-70
2021/07/18 00:56:11;;;;;;;5.20;2.93;;;;;;;17.37;85.34;102433.53;5023389;28;20192;-70
2021/07/18 00:58:37;;;;;;;6.73;3.07;;;;;;;17.60;84.18;102430.44;5019877;28;20192;-70
2021/07/18 01:01:03;;;;;;;4.47;3.30;;;;;;;17.50;84.44;102435.44;5019260;28;20438;-70
2021/07/18 01:03:29;;;;;;;5.60;4.20;;;;;;;17.42;85.01;102434.78;5022512;28;20493;-69
2021/07/18 01:05:57;;;;;;;7.17;3.67;;;;;;;17.68;83.60;102436.72;5022672;28;20188;-70
2021/07/18 01:08:23;;;;;;;6.07;3.30;;;;;;;17.54;83.51;102406.84;5020033;28;20211;-70
2021/07/18 01:10:49;;;;;;;8.40;3.40;;;;;;;17.36;84.01;102403.91;5023850;28;20463;-70
2021/07/18 01:13:15;;;;;;;7.60;3.53;;;;;;;17.53;83.62;102431.44;5023294;28;21050;-70
2021/07/18 01:15:41;;;;;;;5.90;3.13;;;;;;;17.28;84.40;102409.50;5027326;28;20190;-70
2021/07/18 01:18:09;;;;;;;5.20;3.50;;;;;;;17.07;84.86;102394.25;5023766;28;20549;-69
2021/07/18 01:20:35;;;;;;;5.90;3.13;;;;;;;17.42;84.39;102432.09;5025257;28;20958;-69
2021/07/18 01:23:01;;;;;;;5.83;3.43;;;;;;;17.36;84.35;102414.75;5026265;28;20478;-69
2021/07/18 01:25:26;;;;;;;5.50;3.03;;;;;;;17.21;84.25;102395.09;5023936;28;20486;-71
2021/07/18 01:27:52;;;;;;;4.40;3.20;;;;;;;17.41;84.16;102433.94;5025899;28;20291;-70
2021/07/18 01:30:17;;;;;;;5.23;3.13;;;;;;;17.06;83.80;102379.81;5024110;28;20587;-70
2021/07/18 01:32:43;;;;;;;5.93;3.10;;;;;;;17.44;83.86;102435.41;5026722;28;20231;-70
2021/07/18 01:35:09;;;;;;;3.57;2.60;;;;;;;17.33;84.29;102429.56;5025742;28;20282;-70
2021/07/18 01:37:35;;;;;;;6.53;3.60;;;;;;;17.39;83.28;102398.91;5022945;28;20220;-69
2021/07/18 01:40:01;;;;;;;6.20;3.20;;;;;;;17.44;83.70;102430.81;5027801;28;20500;-69
2021/07/18 01:42:26;;;;;;;7.23;3.10;;;;;;;17.36;84.19;102429.16;5020795;28;20256;-70
2021/07/18 01:44:52;;;;;;;5.20;2.40;;;;;;;17.35;83.63;102413.91;5024247;28;20487;-70
2021/07/18 01:47:18;;;;;;;3.80;2.80;;;;;;;17.50;83.08;102416.44;5022542;28;20207;-70
2021/07/18 01:49:43;;;;;;;5.40;3.30;;;;;;;17.33;83.40;102404.31;5025730;28;20199;-70
2021/07/18 01:52:09;;;;;;;6.10;2.37;;;;;;;17.10;83.86;102367.56;5022657;28;20479;-69
2021/07/18 01:54:34;;;;;;;3.57;2.80;;;;;;;17.43;83.04;102402.03;5023449;28;20193;-69
2021/07/18 01:57:29;;;;;;;6.93;2.40;;;;;;;17.51;83.26;102409.13;5024878;28;20226;-69
2021/07/18 01:59:55;;;;;;;3.80;2.57;;;;;;;16.82;83.68;102340.56;5013853;28;20219;-70
2021/07/18 02:02:20;;;;;;;3.10;2.80;;;;;;;17.47;83.02;102405.97;5021617;28;20446;-69
2021/07/18 02:04:47;;;;;;;3.83;2.57;;;;;;;17.18;83.61;102380.06;5024416;28;21167;-69
2021/07/18 02:07:13;;;;;;;6.40;2.60;;;;;;;17.43;82.81;102401.19;5025591;28;21123;-70
2021/07/18 02:09:38;;;;;;;3.90;2.60;;;;;;;17.23;84.21;102410.13;5025496;28;20453;-69
2021/07/18 02:12:06;;;;;;;5.10;2.53;;;;;;;17.36;83.40;102403.91;5025321;28;20235;-69
2021/07/18 02:14:34;;;;;;;5.77;3.00;;;;;;;17.26;82.50;102344.63;5025364;28;20230;-70
2021/07/18 02:17:00;;;;;;;6.50;2.90;;;;;;;17.34;83.61;102400.56;5025327;28;21036;-70
2021/07/18 02:19:29;;;;;;;3.70;2.40;;;;;;;17.35;83.75;102394.06;5025815;28;20526;-70
2021/07/18 02:21:56;;;;;;;3.60;2.40;;;;;;;16.81;83.47;102302.84;5024162;28;20609;-70
2021/07/18 02:24:22;;;;;;;3.80;2.73;;;;;;;17.39;83.88;102401.59;5022465;28;20450;-70
2021/07/18 02:26:47;;;;;;;3.67;2.50;;;;;;;17.05;83.94;102364.63;5023189;28;20978;-70
2021/07/18 02:29:12;;;;;;;6.30;2.60;;;;;;;17.16;84.16;102385.72;5025277;28;20969;-70
2021/07/18 02:31:38;;;;;;;11.63;2.80;;;;;;;17.23;83.84;102388.44;5023816;28;20196;-69
2021/07/18 02:34:04;;;;;;;6.80;2.43;;;;;;;17.39;83.35;102400.78;5023831;28;20199;-69
2021/07/18 02:36:29;;;;;;;4.10;2.27;;;;;;;17.43;83.19;102399.31;5020941;28;20235;-69
2021/07/18 02:38:54;;;;;;;4.73;2.50;;;;;;;17.26;83.71;102376.34;5020938;28;20204;-70
2021/07/18 02:41:21;;;;;;;4.73;2.70;;;;;;;17.37;83.25;102403.69;5024755;28;20237;-69
2021/07/18 02:43:46;;;;;;;5.43;2.53;;;;;;;17.43;83.16;102410.16;5021439;28;20278;-70
2021/07/18 02:46:11;;;;;;;5.13;2.50;;;;;;;17.05;82.90;102352.94;5023226;28;20438;-69
2021/07/18 02:48:38;;;;;;;2.90;2.60;;;;;;;17.38;82.82;102402.63;5023254;28;20597;-70
2021/07/18 02:51:04;;;;;;;6.20;2.97;;;;;;;17.29;83.32;102390.31;5025001;28;20212;-69
2021/07/18 02:53:29;;;;;;;5.73;2.70;;;;;;;17.24;82.67;102400.09;5024622;28;20446;-69
2021/07/18 02:55:55;;;;;;;5.97;2.53;;;;;;;17.17;82.72;102394.66;5022095;28;20439;-70
2021/07/18 02:58:20;;;;;;;2.43;2.23;;;;;;;16.57;82.67;102312.31;5023669;28;20562;-70
2021/07/18 03:00:45;;;;;;;4.80;2.47;;;;;;;16.98;82.43;102363.78;5023364;28;20320;-70
2021/07/18 03:03:11;;;;;;;6.37;2.30;;;;;;;16.99;82.37;102334.78;5024226;28;20196;-70
2021/07/18 03:05:36;;;;;;;4.13;2.53;;;;;;;16.84;82.08;102335.78;5022993;28;20563;-69
2021/07/18 03:08:02;;;;;;;4.10;2.13;;;;;;;16.80;82.03;102358.91;5022846;28;20219;-70
2021/07/18 03:10:28;;;;;;;4.90;2.67;;;;;;;16.78;82.65;102376.41;5026000;28;20558;-70
2021/07/18 03:12:53;;;;;;;7.03;2.03;;;;;;;16.58;82.29;102351.94;5020895;28;20203;-70
2021/07/18 03:15:20;;;;;;;6.20;2.23;;;;;;;16.77;83.47;102344.94;5024834;28;20594;-70
2021/07/18 03:17:45;;;;;;;5.80;2.13;;;;;;;16.96;83.53;102378.56;5023948;28;20585;-69
2021/07/18 03:20:13;;;;;;;2.90;2.00;;;;;;;17.20;83.09;102377.16;5024760;28;20430;-69
2021/07/18 03:22:40;;;;;;;5.00;2.00;;;;;;;17.00;83.53;102375.22;5021860;28;20539;-69
2021/07/18 03:25:06;;;;;;;3.30;1.97;;;;;;;17.07;83.40;102380.69;5022594;28;20858;-70
2021/07/18 03:27:32;;;;;;;3.40;2.00;;;;;;;16.96;82.39;102351.47;5021692;28;20553;-70
2021/07/18 03:29:57;;;;;;;3.33;1.77;;;;;;;16.81;82.13;102325.38;5025610;28;20538;-70
2021/07/18 03:32:23;;;;;;;2.80;2.00;;;;;;;16.92;82.68;102340.16;5022942;28;20734;-70
2021/07/18 03:34:48;;;;;;;4.50;2.30;;;;;;;16.76;82.24;102279.06;5022987;28;20368;-70
2021/07/18 03:37:15;;;;;;;4.40;2.20;;;;;;;17.15;82.38;102359.66;5023471;28;20196;-70
2021/07/18 03:39:40;;;;;;;2.60;1.93;;;;;;;16.43;82.93;102262.69;5022827;28;21275;-70
2021/07/18 03:42:06;;;;;;;3.43;2.00;;;;;;;17.07;82.81;102367.97;5025306;28;20450;-70
2021/07/18 03:44:31;;;;;;;3.37;2.20;;;;;;;17.28;82.16;102363.41;5022857;28;20187;-70
2021/07/18 03:46:57;;;;;;;4.57;1.90;;;;;;;17.07;82.83;102364.44;5024000;28;20216;-70
2021/07/18 03:49:22;;;;;;;2.90;1.60;;;;;;;16.87;82.99;102337.25;5039865;28;20196;-70
2021/07/18 03:51:48;;;;;;;4.50;2.20;;;;;;;16.87;83.96;102361.66;5024030;28;20207;-70
2021/07/18 03:54:13;;;;;;;2.90;1.87;;;;;;;16.92;82.71;102332.03;5024261;28;20192;-70
2021/07/18 03:56:38;;;;;;;6.73;2.03;;;;;;;17.01;83.16;102365.22;5022768;28;20298;-70
2021/07/18 03:59:04;;;;;;;4.67;1.87;;;;;;;16.35;83.01;102269.13;5024835;28;20195;-70
2021/07/18 04:01:29;;;;;;;1.93;1.73;;;;;;;16.98;83.12;102362.91;5022678;28;20269;-70
2021/07/18 04:03:55;;;;;;;2.30;2.07;;;;;;;16.99;82.75;102375.44;5022409;28;20219;-70
2021/07/18 04:06:21;;;;;;;4.00;1.97;;;;;;;17.08;82.42;102379.63;5022643;28;20931;-70
2021/07/18 04:08:47;;;;;;;3.63;2.00;;;;;;;16.84;82.45;102322.25;5025141;28;20314;-70
2021/07/18 04:11:13;;;;;;;2.60;2.10;;;;;;;16.65;83.55;102318.38;5021500;28;20462;-70
2021/07/18 04:13:39;;;;;;;2.70;2.13;;;;;;;17.07;83.61;102369.84;5022462;28;20731;-70
2021/07/18 04:16:06;;;;;;;4.83;2.33;;;;;;;17.23;83.37;102376.75;5021420;28;20442;-70
2021/07/18 04:18:32;;;;;;;6.83;2.80;;;;;;;16.73;83.53;102307.38;5026149;28;20446;-70
2021/07/18 04:20:59;;;;;;;3.73;2.50;;;;;;;17.21;83.92;102379.66;5025387;28;20565;-70
2021/07/18 04:23:24;;;;;;;5.60;2.50;;;;;;;17.02;84.03;102326.25;5022447;28;20999;-70
2021/07/18 04:25:50;;;;;;;6.13;2.40;;;;;;;17.42;83.60;102375.94;5022235;28;20541;-70
2021/07/18 04:28:15;;;;;;;8.33;2.73;;;;;;;17.18;84.45;102361.09;5021273;28;20241;-70
2021/07/18 04:30:41;;;;;;;3.10;2.70;;;;;;;17.42;84.52;102375.94;5017199;28;20212;-70
2021/07/18 04:33:07;;;;;;;3.50;2.60;;;;;;;17.10;85.14;102336.91;5021118;28;20271;-70
2021/07/18 04:35:32;;;;;;;8.20;2.90;;;;;;;17.16;84.79;102339.63;5023137;28;20522;-70
2021/07/18 04:37:58;;;;;;;11.37;2.77;;;;;;;17.30;85.07;102362.16;5021611;28;20603;-70
2021/07/18 04:40:26;;;;;;;6.40;2.67;;;;;;;17.46;84.92;102379.91;5021097;28;20646;-70
2021/07/18 04:42:52;;;;;;;6.50;3.30;;;;;;;17.49;84.61;102376.78;5019293;28;21088;-70
2021/07/18 04:45:17;;;;;;;5.40;3.30;;;;;;;17.28;84.65;102330.88;5021067;28;20454;-70
2021/07/18 04:47:47;;;;;;;10.10;3.00;;;;;;;17.53;84.38;102371.78;5023345;28;20274;-70
2021/07/18 04:50:13;;;;;;;7.30;3.40;;;;;;;17.53;84.76;102375.34;5021828;28;20192;-70
2021/07/18 04:52:39;;;;;;;8.33;3.17;;;;;;;17.56;84.68;102365.91;5024092;28;20581;-71
2021/07/18 04:55:05;;;;;;;10.43;3.37;;;;;;;17.66;84.55;102360.94;5022699;28;20526;-70
2021/07/18 04:57:30;;;;;;;8.37;3.40;;;;;;;17.35;85.05;102315.44;5022190;28;20344;-70
2021/07/18 04:59:56;;;;;;;5.70;3.07;;;;;;;17.48;84.20;102314.63;5021588;28;25936;-70
2021/07/18 05:02:21;;;;;;;10.03;3.97;;;;;;;17.26;85.11;102287.69;5016391;28;20203;-70
2021/07/18 05:04:46;;;;;;;3.77;2.70;;;;;;;17.66;85.08;102349.25;5020965;28;20288;-71
2021/07/18 05:07:12;;;;;;;6.50;3.30;;;;;;;17.55;84.85;102327.13;5019846;28;20219;-70
2021/07/18 05:09:37;;;;;;;9.03;3.07;;;;;;;17.55;85.15;102337.13;5022606;28;20327;-70
2021/07/18 05:12:03;;;;;;;6.80;3.20;;;;;;;17.91;84.11;102357.63;5024629;28;20844;-70
2021/07/18 05:14:28;;;;;;;3.60;2.73;;;;;;;17.56;84.74;102306.25;5031806;28;20192;-70
2021/07/18 05:16:54;;;;;;;7.90;4.20;;;;;;;17.89;84.53;102354.28;5024662;28;20537;-69
2021/07/18 05:19:19;;;;;;;7.93;3.80;;;;;;;17.88;85.03;102361.59;5026153;28;20199;-69
2021/07/18 05:21:45;;;;;;;4.60;3.10;;;;;;;17.86;85.47;102357.41;5027779;28;20247;-69
2021/07/18 05:24:10;;;;;;;6.27;3.57;;;;;;;17.95;85.32;102354.25;5026045;28;20599;-70
2021/07/18 05:26:35;;;;;;;6.00;3.53;;;;;;;17.61;84.95;102312.72;5039801;28;20255;-69
2021/07/18 05:29:01;;;;;;;6.30;3.13;;;;;;;17.96;85.26;102365.94;5024475;28;20196;-70
2021/07/18 05:31:26;;;;;;;5.53;3.20;;;;;;;17.91;85.41;102352.19;5026347;28;20208;-69
2021/07/18 05:33:51;;;;;;;4.03;2.93;;;;;;;17.86;85.50;102341.13;5025441;28;20271;-70
2021/07/18 05:36:17;;;;;;;8.07;3.30;;;;;;;17.56;85.17;102279.97;5025497;28;20208;-70
2021/07/18 05:38:42;;;;;;;8.20;3.60;;;;;;;18.13;85.12;102358.19;5024615;28;20196;-69
2021/07/18 05:41:08;;;;;;;5.23;3.30;;;;;;;17.60;84.87;102262.22;5026207;28;20231;-70
2021/07/18 05:43:33;;;;;;;8.10;3.40;;;;;;;18.24;85.04;102361.09;5025162;28;20610;-70
2021/07/18 05:45:58;;;;;;;4.83;3.00;;;;;;;18.03;85.01;102326.06;5025632;28;20180;-70
2021/07/18 05:48:24;;;;;;;4.00;2.90;;;;;;;18.14;85.26;102336.28;5022031;28;20231;-69
2021/07/18 05:50:51;;;;;;;5.63;3.47;;;;;;;18.30;85.05;102360.22;5025555;28;20676;-70
2021/07/18 05:53:17;;;;;;;5.13;3.47;;;;;;;18.35;85.82;102375.06;5026700;28;20512;-70
2021/07/18 05:55:42;;;;;;;4.40;2.93;;;;;;;18.31;85.89;102374.63;5028211;28;20426;-70
2021/07/18 05:58:08;;;;;;;5.57;3.37;;;;;;;18.30;86.16;102372.97;5030072;28;20215;-70
2021/07/18 06:00:33;;;;;;;6.13;3.50;;;;;;;18.31;85.68;102347.47;5028792;28;20227;-70
2021/07/18 06:02:58;;;;;;;5.50;3.53;;;;;;;18.22;85.29;102317.00;5029266;28;20228;-70
2021/07/18 06:05:24;;;;;;;5.93;3.73;;;;;;;18.47;86.64;102384.22;5025580;28;20203;-69
2021/07/18 06:07:49;;;;;;;7.23;4.07;;;;;;;18.58;85.84;102364.53;5028597;28;20219;-69
2021/07/18 06:10:17;;;;;;;4.47;3.37;;;;;;;18.73;85.12;102359.69;5030893;28;20259;-69
2021/07/18 06:12:43;;;;;;;4.10;2.90;;;;;;;18.67;85.05;102337.97;5029128;28;20524;-69
2021/07/18 06:15:08;;;;;;;4.20;2.67;;;;;;;18.67;83.82;102327.09;5028394;28;20439;-69
2021/07/18 06:17:37;;;;;;;3.33;2.30;;;;;;;18.51;83.94;102310.22;5026024;28;20282;-70
2021/07/18 06:20:08;;;;;;;2.37;2.03;;;;;;;18.58;83.89;102303.94;5030773;28;20651;-69
2021/07/18 06:22:34;;;;;;;3.67;2.13;;;;;;;18.92;83.51;102355.22;5029165;28;20439;-70
2021/07/18 06:25:00;;;;;;;3.80;2.07;;;;;;;18.80;83.29;102323.47;5043800;28;21459;-70
2021/07/18 06:27:25;;;;;;;2.87;2.47;;;;;;;18.91;83.31;102348.09;5029564;28;20466;-70
2021/07/18 06:29:51;;;;;;;2.80;2.00;;;;;;;18.71;83.33;102292.97;5029184;28;20200;-69
2021/07/18 06:32:16;;;;;;;2.67;2.07;;;;;;;18.60;83.03;102269.19;5030745;28;20203;-69
2021/07/18 06:34:41;;;;;;;3.10;2.37;;;;;;;18.92;82.53;102321.75;5028102;28;20608;-70
2021/07/18 06:37:07;;;;;;;2.17;1.97;;;;;;;19.02;82.69;102329.44;5030019;28;20708;-69
2021/07/18 06:39:32;;;;;;;3.53;2.50;;;;;;;19.03;81.87;102322.94;5027218;28;20697;-70
2021/07/18 06:41:58;;;;;;;4.53;1.97;;;;;;;18.92;82.12;102303.56;5027791;28;20255;-70
2021/07/18 06:44:23;;;;;;;4.23;2.07;;;;;;;19.20;80.90;102357.53;5028426;28;20827;-69
2021/07/18 06:46:48;;;;;;;3.77;2.30;;;;;;;19.13;80.37;102337.72;5025965;28;20201;-69
2021/07/18 06:49:14;;;;;;;4.47;2.23;;;;;;;18.75;80.16;102261.63;5030043;28;20189;-69
2021/07/18 06:51:39;;;;;;;2.67;1.97;;;;;;;18.80;79.84;102269.13;5028161;28;20766;-70
2021/07/18 06:54:04;;;;;;;2.80;2.20;;;;;;;19.28;79.62;102321.09;5029616;28;20188;-69
2021/07/18 06:56:30;;;;;;;2.93;1.60;;;;;;;19.38;78.95;102348.66;5026837;28;20212;-69
2021/07/18 06:58:57;;;;;;;3.87;2.13;;;;;;;19.44;78.89;102357.81;5029035;28;20269;-70
2021/07/18 07:01:22;;;;;;;2.47;1.80;;;;;;;19.19;78.92;102301.47;5024525;28;20597;-70
2021/07/18 07:03:48;;;;;;;5.70;2.70;;;;;;;19.20;79.71;102305.03;5025964;28;20442;-70
2021/07/18 07:06:13;;;;;;;2.30;1.87;;;;;;;19.55;80.09;102351.63;5021758;28;20185;-70
2021/07/18 07:08:41;;;;;;;2.60;1.80;;;;;;;19.39;79.44;102327.69;5026910;28;20188;-70
2021/07/18 07:11:06;;;;;;;4.30;1.80;;;;;;;19.46;77.41;102358.41;5027882;28;20204;-70
2021/07/18 07:13:31;;;;;;;1.60;1.50;;;;;;;19.21;78.29;102295.84;5029025;28;20807;-70
2021/07/18 07:15:58;;;;;;;2.20;1.50;;;;;;;19.29;79.75;102306.41;5040955;28;20203;-69
2021/07/18 07:18:24;;;;;;;3.23;1.87;;;;;;;19.68;78.66;102358.06;5021668;28;20193;-70
2021/07/18 07:20:49;;;;;;;2.53;1.57;;;;;;;19.79;78.17;102363.63;5024626;28;20443;-71
2021/07/18 07:23:14;;;;;;;3.70;2.03;;;;;;;19.33;77.76;102274.19;5026488;28;20496;-71
2021/07/18 07:25:40;;;;;;;1.77;1.60;;;;;;;19.59;77.31;102322.94;5038800;28;20200;-72
2021/07/18 07:28:05;;;;;;;2.63;1.50;;;;;;;19.60;75.88;102323.75;5028452;28;20299;-72
2021/07/18 07:30:31;;;;;;;1.83;1.37;;;;;;;19.74;76.50;102362.63;5030642;28;20720;-72
2021/07/18 07:32:56;;;;;;;3.67;1.70;;;;;;;19.14;76.55;102260.50;5025271;28;20188;-71
2021/07/18 07:35:22;;;;;;;6.47;2.10;;;;;;;19.60;77.10;102319.13;5033198;28;20543;-71
2021/07/18 07:37:48;;;;;;;4.77;1.53;;;;;;;19.60;77.47;102310.97;5024369;28;20227;-71
2021/07/18 07:40:18;;;;;;;3.20;1.70;;;;;;;19.90;75.82;102342.13;5034409;28;20430;-71
2021/07/18 07:42:43;;;;;;;3.43;1.67;;;;;;;20.06;75.66;102358.72;5028076;28;20461;-71
2021/07/18 07:45:10;;;;;;;2.83;1.47;;;;;;;20.04;76.14;102358.13;5027865;28;20435;-71
2021/07/18 07:47:40;;;;;;;4.53;1.60;;;;;;;19.85;76.29;102316.44;5027235;28;21169;-71
2021/07/18 07:50:11;;;;;;;3.97;1.87;;;;;;;20.05;75.94;102365.25;5029376;28;20430;-71
2021/07/18 07:52:37;;;;;;;2.20;1.70;;;;;;;20.05;75.55;102329.84;5035771;28;20443;-71
2021/07/18 07:55:04;;;;;;;2.70;1.60;;;;;;;20.19;75.61;102348.75;5028727;28;20468;-71
2021/07/18 07:57:29;;;;;;;3.97;1.97;;;;;;;20.02;75.75;102326.75;5021699;28;20710;-71
2021/07/18 07:59:55;;;;;;;1.67;1.53;;;;;;;19.94;74.99;102292.47;5026825;28;20447;-72
2021/07/18 08:02:20;;;;;;;3.10;1.63;;;;;;;20.17;75.30;102329.91;5026624;28;20187;-71
2021/07/18 08:04:45;;;;;;;4.27;1.63;;;;;;;20.14;74.91;102321.38;5040682;28;20686;-71
2021/07/18 08:07:11;;;;;;;1.00;1.00;;;;;;;20.30;75.30;102340.66;5024875;28;20208;-72
2021/07/18 08:09:36;;;;;;;2.30;1.47;;;;;;;20.36;74.73;102347.09;5026757;28;20188;-70
2021/07/18 08:12:02;;;;;;;2.30;1.30;;;;;;;20.22;74.03;102321.03;5027787;28;20337;-71
2021/07/18 08:14:27;;;;;;;2.83;1.43;;;;;;;20.39;74.38;102351.25;5027697;28;20632;-71
2021/07/18 08:16:53;;;;;;;2.43;1.80;;;;;;;20.23;72.75;102347.25;5025457;28;20204;-71
2021/07/18 08:19:18;;;;;;;5.43;1.53;;;;;;;20.06;73.32;102298.81;5022745;28;20203;-73
2021/07/18 08:21:44;;;;;;;2.63;1.67;;;;;;;20.01;72.76;102306.00;5036242;28;20184;-73
2021/07/18 08:24:09;;;;;;;2.27;1.80;;;;;;;20.40;73.61;102342.84;5021749;28;20246;-71
2021/07/18 08:26:35;;;;;;;2.17;1.67;;;;;;;20.33;73.35;102312.94;5024951;28;20236;-71
2021/07/18 08:29:01;;;;;;;5.63;1.77;;;;;;;20.27;73.74;102313.84;5022206;28;20192;-71
2021/07/18 08:31:28;;;;;;;4.20;1.70;;;;;;;20.28;74.12;102298.38;5026342;28;20309;-70
2021/07/18 08:33:55;;;;;;;2.80;1.60;;;;;;;20.25;72.81;102288.75;5026482;28;20395;-70
2021/07/18 08:36:21;;;;;;;2.77;1.90;;;;;;;20.40;72.63;102328.41;5026550;28;20455;-70
2021/07/18 08:38:47;;;;;;;2.40;1.40;;;;;;;20.63;72.47;102335.91;5023148;28;20451;-70
2021/07/18 08:41:12;;;;;;;2.10;1.50;;;;;;;20.67;72.58;102332.47;5026445;28;20447;-71
2021/07/18 08:43:38;;;;;;;3.17;1.70;;;;;;;20.71;72.33;102338.28;5025468;28;20758;-70
2021/07/18 08:46:04;;;;;;;3.17;1.30;;;;;;;20.69;72.19;102334.97;5025915;28;20207;-71
2021/07/18 08:48:30;;;;;;;4.37;1.90;;;;;;;20.63;70.50;102331.28;5024574;28;20583;-70
2021/07/18 08:50:56;;;;;;;1.70;1.43;;;;;;;20.59;70.93;102324.59;5019748;28;20467;-70
2021/07/18 08:53:25;;;;;;;4.40;1.57;;;;;;;20.85;71.04;102328.88;5024998;28;20195;-71
2021/07/18 08:55:51;;;;;;;1.70;1.60;;;;;;;20.50;71.49;102279.63;5022611;28;20196;-71
2021/07/18 08:58:17;;;;;;;2.50;1.43;;;;;;;20.92;73.19;102317.88;5025922;28;20470;-71
2021/07/18 09:00:43;;;;;;;4.50;1.90;;;;;;;20.80;70.99;102306.06;5024905;28;20439;-71
2021/07/18 09:03:14;;;;;;;3.90;1.77;;;;;;;20.49;70.69;102270.63;5028552;28;20215;-71
2021/07/18 09:05:39;;;;;;;2.00;1.70;;;;;;;20.92;69.85;102323.34;5028227;28;20430;-71
2021/07/18 09:08:06;;;;;;;3.13;1.43;;;;;;;20.52;70.62;102289.28;5021384;28;20509;-72
2021/07/18 09:10:32;;;;;;;2.00;1.47;;;;;;;20.94;70.43;102322.03;5028464;28;20672;-71
2021/07/18 09:13:05;;;;;;;2.30;1.60;;;;;;;21.10;70.65;102309.63;5027676;28;21190;-71
2021/07/18 09:15:45;;;;;;;2.17;1.47;;;;;;;21.15;69.87;102311.66;5028532;28;20441;-72
2021/07/18 09:18:12;;;;;;;2.17;1.97;;;;;;;20.95;68.54;102285.50;5027661;28;20813;-71
2021/07/18 09:20:40;;;;;;;3.00;1.60;;;;;;;21.25;69.19;102330.19;5028471;28;20442;-72
2021/07/18 09:23:17;;;;;;;2.00;1.80;;;;;;;20.92;69.05;102263.34;5027998;28;20950;-71
2021/07/18 09:25:43;;;;;;;2.50;2.20;;;;;;;21.32;68.40;102325.44;5027366;28;20426;-72
2021/07/18 09:28:17;;;;;;;1.50;1.40;;;;;;;20.88;68.51;102270.31;5020733;28;20531;-71
2021/07/18 09:30:48;;;;;;;8.60;1.30;;;;;;;21.30;68.64;102342.06;5031358;28;20466;-71
2021/07/18 09:33:25;;;;;;;3.70;1.77;;;;;;;21.26;67.07;102321.75;5031626;28;21001;-71
2021/07/18 09:35:50;;;;;;;1.43;1.33;;;;;;;21.05;68.64;102298.56;5030176;28;20438;-72
2021/07/18 09:38:23;;;;;;;1.80;1.70;;;;;;;21.43;68.56;102347.31;5031114;28;20462;-71
2021/07/18 09:40:59;;;;;;;1.17;1.07;;;;;;;21.60;68.32;102349.38;5030915;28;20180;-72
2021/07/18 09:43:27;;;;;;;1.90;1.50;;;;;;;21.35;67.65;102305.84;5031816;28;20457;-71
2021/07/18 09:46:10;;;;;;;5.30;1.90;;;;;;;21.41;66.07;102329.53;5030674;28;20450;-71
2021/07/18 09:48:46;;;;;;;1.63;1.53;;;;;;;21.40;67.82;102347.78;5030479;28;20415;-72
2021/07/18 09:51:13;;;;;;;2.10;1.53;;;;;;;21.32;68.15;102314.50;5031598;28;20454;-71
2021/07/18 09:53:40;;;;;;;3.13;1.73;;;;;;;21.31;67.52;102283.66;5029293;28;20435;-71
2021/07/18 09:56:09;;;;;;;6.40;1.57;;;;;;;21.75;68.16;102355.19;5033777;28;20928;-71
2021/07/18 09:58:37;;;;;;;2.87;1.57;;;;;;;21.57;67.34;102328.00;5029510;28;20445;-72
2021/07/18 10:01:06;;;;;;;1.43;1.30;;;;;;;21.53;66.60;102333.09;5030547;28;20454;-71
2021/07/18 10:03:32;;;;;;;1.90;1.40;;;;;;;21.62;67.28;102326.22;5031403;28;20454;-72
2021/07/18 10:06:12;;;;;;;2.83;1.47;;;;;;;21.63;66.03;102302.47;5043937;28;20507;-72
2021/07/18 10:08:42;;;;;;;1.73;1.43;;;;;;;21.76;66.46;102306.88;5029537;28;20430;-72
2021/07/18 10:11:10;;;;;;;2.00;1.60;;;;;;;21.83;65.02;102322.06;5039678;28;20851;-72
2021/07/18 10:13:38;;;;;;;1.60;1.20;;;;;;;22.01;65.71;102328.47;5029954;28;20439;-72
2021/07/18 10:16:05;;;;;;;1.67;1.57;;;;;;;21.77;64.83;102292.97;5021533;28;20486;-72
2021/07/18 10:18:31;;;;;;;1.30;1.20;;;;;;;22.11;64.01;102328.69;5028923;28;20530;-72
2021/07/18 10:20:58;;;;;;;3.53;1.30;;;;;;;21.93;64.30;102306.97;5029248;28;20534;-71
2021/07/18 10:23:25;;;;;;;3.10;1.40;;;;;;;21.66;64.64;102248.22;5026988;28;20195;-72
2021/07/18 10:25:52;;;;;;;1.63;1.40;;;;;;;22.21;64.75;102318.00;5027948;28;20446;-71
2021/07/18 10:28:18;;;;;;;1.43;1.10;;;;;;;22.08;64.91;102294.47;5029309;28;20463;-71
2021/07/18 10:30:49;;;;;;;2.47;1.60;;;;;;;21.95;65.46;102263.84;5030589;28;20459;-71
2021/07/18 10:33:18;;;;;;;2.63;1.43;;;;;;;22.37;63.72;102319.16;5025667;28;20267;-71
2021/07/18 10:35:45;;;;;;;3.10;1.30;;;;;;;22.09;63.11;102307.06;5030079;28;20427;-71
2021/07/18 10:38:22;;;;;;;1.00;1.00;;;;;;;22.24;63.22;102330.34;5028026;28;20471;-71
2021/07/18 10:40:56;;;;;;;3.87;1.57;;;;;;;21.86;62.97;102271.59;5028820;28;20997;-72
2021/07/18 10:43:49;;;;;;;2.20;1.20;;;;;;;22.19;63.74;102324.78;5027537;28;20777;-71
2021/07/18 10:46:43;;;;;;;2.60;1.43;;;;;;;22.25;64.11;102326.56;5029093;28;20458;-71
2021/07/18 10:49:13;;;;;;;3.43;1.50;;;;;;;22.10;63.84;102288.75;5024546;28;20466;-71
2021/07/18 10:51:41;;;;;;;1.30;1.03;;;;;;;22.42;64.41;102305.63;5029770;28;20494;-72
2021/07/18 10:54:10;;;;;;;3.60;1.73;;;;;;;22.30;64.36;102315.72;5029279;28;20439;-71
2021/07/18 10:56:45;;;;;;;2.33;1.40;;;;;;;22.29;63.85;102317.63;5023611;28;20499;-71
2021/07/18 10:59:34;;;;;;;2.73;1.30;;;;;;;22.37;64.39;102310.97;5025934;28;20802;-71
2021/07/18 11:02:18;;;;;;;4.00;1.73;;;;;;;22.31;64.26;102310.03;5027946;28;20439;-71
2021/07/18 11:04:46;;;;;;;2.17;1.37;;;;;;;22.54;63.70;102300.09;5021322;28;20438;-71
2021/07/18 11:07:20;;;;;;;2.53;1.80;;;;;;;22.56;63.83;102300.66;5025379;28;20455;-70
2021/07/18 11:09:56;;;;;;;1.30;1.17;;;;;;;22.60;62.96;102303.75;5026139;28;20437;-71
2021/07/18 11:12:26;;;;;;;4.30;1.60;;;;;;;22.57;63.18;102299.59;5027889;28;20454;-70
2021/07/18 11:14:53;;;;;;;2.00;1.40;;;;;;;22.68;63.19;102306.94;5023735;28;20455;-71
2021/07/18 11:17:28;;;;;;;2.43;1.70;;;;;;;22.12;63.90;102281.16;5024713;28;20451;-71
2021/07/18 11:19:57;;;;;;;1.47;1.37;;;;;;;22.68;63.54;102292.41;5028008;28;20938;-71
2021/07/18 11:23:00;;;;;;;1.73;1.63;;;;;;;22.83;64.39;102291.88;5029864;28;20533;-72